Time;durP1;ratioP1;P1;durP2;ratioP2;P2;SDS_P1;SDS_P2;PMS_P1;PMS_P2;Temp;Humidity;BMP_temperature;BMP_pressure;BME280_temperature;BME280_humidity;BME280_pressure;Samples;Min_cycle;Max_cycle;Signal;HPM_P1;HPM_P2
2022/09/23 00:00:44;;;;;;;1.45;1.35;;;5.20;99.90;;;;;;5015189;28;20061;-73
2022/09/23 00:03:10;;;;;;;1.25;1.15;;;5.20;99.90;;;;;;5015988;28;20105;-73
2022/09/23 00:05:39;;;;;;;1.55;1.42;;;5.20;99.90;;;;;;5015675;28;20026;-73
2022/09/23 00:08:07;;;;;;;1.40;1.23;;;5.30;99.90;;;;;;5012885;28;20482;-74
2022/09/23 00:10:36;;;;;;;2.83;1.02;;;5.30;99.90;;;;;;5013515;28;20053;-74
2022/09/23 00:13:02;;;;;;;1.35;1.27;;;5.30;99.90;;;;;;5013044;28;20060;-73
2022/09/23 00:15:30;;;;;;;1.60;1.50;;;5.30;99.90;;;;;;5013733;28;20022;-73
2022/09/23 00:17:56;;;;;;;0.82;0.75;;;5.40;99.90;;;;;;5014319;28;20052;-74
2022/09/23 00:20:22;;;;;;;1.00;1.00;;;5.20;99.90;;;;;;5013482;28;20018;-73
2022/09/23 00:22:48;;;;;;;1.85;0.65;;;5.30;99.90;;;;;;5028867;28;20110;-74
2022/09/23 00:25:14;;;;;;;1.73;1.08;;;5.30;99.90;;;;;;5013446;28;20434;-74
2022/09/23 00:27:41;;;;;;;0.85;0.85;;;5.40;99.90;;;;;;5012038;28;20070;-73
2022/09/23 00:30:07;;;;;;;1.10;1.05;;;5.30;99.90;;;;;;5012074;28;20045;-73
2022/09/23 00:32:34;;;;;;;1.20;1.10;;;5.30;99.90;;;;;;5011803;28;20141;-74
2022/09/23 00:35:00;;;;;;;1.65;1.02;;;5.10;99.90;;;;;;5013445;28;20393;-73
2022/09/23 00:37:27;;;;;;;1.35;1.25;;;5.10;99.90;;;;;;5013240;28;20034;-73
2022/09/23 00:39:54;;;;;;;1.40;0.90;;;5.00;99.90;;;;;;5013098;28;20025;-73
2022/09/23 00:42:21;;;;;;;1.30;0.90;;;5.00;99.90;;;;;;5013715;28;20037;-74
2022/09/23 00:44:56;;;;;;;1.15;1.15;;;5.10;99.90;;;;;;5014058;28;20501;-74
2022/09/23 00:47:43;;;;;;;3.72;1.33;;;5.00;99.90;;;;;;5013799;28;20430;-73
2022/09/23 00:50:25;;;;;;;2.25;1.02;;;5.10;99.90;;;;;;5013239;28;20060;-74
2022/09/23 00:52:53;;;;;;;1.13;1.05;;;5.10;99.90;;;;;;5013423;28;20100;-73
2022/09/23 00:55:25;;;;;;;3.83;1.92;;;5.00;99.90;;;;;;5011793;28;20494;-73
2022/09/23 00:57:55;;;;;;;1.85;1.75;;;5.00;99.90;;;;;;5012903;28;20032;-73
2022/09/23 01:00:22;;;;;;;1.25;1.17;;;5.10;99.90;;;;;;5011596;28;20034;-73
2022/09/23 01:02:48;;;;;;;0.77;0.77;;;5.00;99.90;;;;;;5011860;28;20449;-73
2022/09/23 01:05:14;;;;;;;1.70;1.00;;;4.90;99.90;;;;;;5012955;28;20029;-73
2022/09/23 01:07:40;;;;;;;0.63;0.63;;;4.90;99.90;;;;;;5011959;28;20390;-73
2022/09/23 01:10:07;;;;;;;1.13;1.02;;;4.80;99.90;;;;;;5011219;28;20101;-73
2022/09/23 01:12:50;;;;;;;0.82;0.82;;;4.70;99.90;;;;;;5011130;28;20018;-75
2022/09/23 01:15:40;;;;;;;1.95;1.05;;;4.70;99.90;;;;;;5011032;28;20037;-74
2022/09/23 01:18:12;;;;;;;;;;;4.60;99.90;;;;;;5011199;28;20026;-75
2022/09/23 01:21:00;;;;;;;0.80;0.80;;;4.60;99.90;;;;;;5011656;28;19913;-74
2022/09/23 01:24:08;;;;;;;0.98;0.90;;;4.60;99.90;;;;;;5011103;28;20430;-76
2022/09/23 01:27:12;;;;;;;1.30;1.20;;;4.60;99.90;;;;;;5012813;28;20018;-74
2022/09/23 01:29:47;;;;;;;2.22;2.13;;;4.60;99.90;;;;;;5009742;28;20030;-73
2022/09/23 01:32:30;;;;;;;1.13;0.80;;;4.60;99.90;;;;;;5012416;28;20046;-73
2022/09/23 01:35:11;;;;;;;4.97;1.98;;;4.70;99.90;;;;;;5028024;28;20177;-73
2022/09/23 01:37:49;;;;;;;1.75;1.65;;;4.60;99.90;;;;;;5012659;28;20093;-73
2022/09/23 01:40:22;;;;;;;0.65;0.65;;;4.50;99.90;;;;;;5012817;28;20113;-73
2022/09/23 01:43:03;;;;;;;2.28;1.67;;;4.60;99.90;;;;;;5012775;28;20033;-75
2022/09/23 01:45:32;;;;;;;0.93;0.60;;;4.50;99.90;;;;;;5027843;28;20486;-75
2022/09/23 01:48:12;;;;;;;0.70;0.70;;;4.50;99.90;;;;;;5011193;28;20045;-75
2022/09/23 01:50:57;;;;;;;0.60;0.60;;;4.50;99.90;;;;;;5014113;28;20129;-73
2022/09/23 01:53:41;;;;;;;0.98;0.98;;;4.50;99.90;;;;;;5014901;28;20022;-74
2022/09/23 01:56:29;;;;;;;1.83;1.17;;;4.40;99.90;;;;;;5016511;28;20026;-73
2022/09/23 01:59:29;;;;;;;1.80;1.25;;;4.40;99.90;;;;;;5016109;28;20026;-73
2022/09/23 02:02:14;;;;;;;1.75;0.93;;;4.30;99.90;;;;;;5016601;28;20042;-74
2022/09/23 02:04:46;;;;;;;1.55;1.45;;;4.30;99.90;;;;;;5015222;28;20530;-74
2022/09/23 02:07:28;;;;;;;1.63;1.52;;;4.40;99.90;;;;;;5014679;28;20383;-73
2022/09/23 02:10:09;;;;;;;0.95;0.95;;;4.30;99.90;;;;;;5029805;28;20022;-74
2022/09/23 02:12:39;;;;;;;1.85;1.13;;;4.40;99.90;;;;;;5013336;28;20118;-74
2022/09/23 02:15:10;;;;;;;2.25;2.13;;;4.30;99.90;;;;;;5013599;28;20029;-73
2022/09/23 02:17:46;;;;;;;1.05;1.02;;;4.30;99.90;;;;;;5013493;28;20030;-73
2022/09/23 02:20:19;;;;;;;1.08;1.00;;;4.30;99.90;;;;;;5012638;28;20045;-74
2022/09/23 02:23:00;;;;;;;1.38;1.33;;;5.10;99.90;;;;;;5012699;28;20490;-75
2022/09/23 02:25:36;;;;;;;1.40;0.68;;;4.20;99.90;;;;;;5012914;28;20018;-73
2022/09/23 02:28:12;;;;;;;1.08;1.08;;;4.20;99.90;;;;;;5012590;28;20033;-73
2022/09/23 02:30:47;;;;;;;1.75;0.95;;;4.10;99.90;;;;;;5011774;28;20033;-73
2022/09/23 02:33:35;;;;;;;0.77;0.77;;;4.10;99.90;;;;;;5013204;28;20370;-73
2022/09/23 02:36:42;;;;;;;5.50;1.00;;;4.10;99.90;;;;;;5013738;28;20105;-73
2022/09/23 02:39:12;;;;;;;0.80;0.80;;;4.10;99.90;;;;;;5009841;28;20045;-73
2022/09/23 02:41:40;;;;;;;1.55;1.45;;;4.10;99.90;;;;;;5012304;28;20508;-73
2022/09/23 02:44:13;;;;;;;2.00;1.80;;;4.10;99.90;;;;;;5013263;28;20022;-73
2022/09/23 02:46:42;;;;;;;1.30;1.27;;;4.20;99.90;;;;;;5012532;28;20021;-73
2022/09/23 02:49:16;;;;;;;0.88;0.88;;;4.30;99.90;;;;;;5012758;28;20148;-73
2022/09/23 02:51:43;;;;;;;0.85;0.85;;;4.20;99.90;;;;;;5029278;28;20121;-74
2022/09/23 02:54:13;;;;;;;4.18;1.58;;;4.20;99.90;;;;;;5013886;28;20105;-73
2022/09/23 02:56:40;;;;;;;1.65;1.05;;;4.20;99.90;;;;;;5028783;28;20112;-73
2022/09/23 02:59:08;;;;;;;1.67;0.88;;;4.20;99.90;;;;;;5013983;28;20156;-74
2022/09/23 03:01:52;;;;;;;2.80;1.35;;;4.20;99.90;;;;;;5014052;28;20128;-73
2022/09/23 03:04:20;;;;;;;1.63;1.35;;;4.20;99.90;;;;;;5012413;28;20045;-73
2022/09/23 03:07:13;;;;;;;1.80;1.67;;;4.10;99.90;;;;;;5013060;28;20045;-73
2022/09/23 03:10:42;;;;;;;2.58;0.80;;;4.10;99.90;;;;;;5013349;28;20018;-73
2022/09/23 03:13:25;;;;;;;1.70;1.58;;;4.00;99.90;;;;;;4904438;29;20129;-73
2022/09/23 03:16:05;;;;;;;1.50;1.45;;;4.00;99.90;;;;;;5008239;28;20486;-73
2022/09/23 03:18:54;;;;;;;1.20;1.10;;;3.90;99.90;;;;;;5013943;28;20057;-73
2022/09/23 03:21:48;;;;;;;6.53;1.40;;;3.90;99.90;;;;;;5012207;28;20120;-74
2022/09/23 03:24:14;;;;;;;1.42;1.23;;;3.90;99.90;;;;;;5012093;28;20037;-73
2022/09/23 03:26:45;;;;;;;1.95;1.50;;;3.90;99.90;;;;;;5012798;28;20033;-77
2022/09/23 03:29:14;;;;;;;1.38;1.15;;;3.90;99.90;;;;;;5012040;28;20550;-73
2022/09/23 03:31:41;;;;;;;1.67;1.58;;;3.90;99.90;;;;;;5012066;28;20114;-74
2022/09/23 03:34:23;;;;;;;2.25;1.30;;;4.00;99.90;;;;;;5010658;28;20025;-73
2022/09/23 03:37:00;;;;;;;1.42;1.13;;;3.80;99.90;;;;;;5026941;28;20022;-73
2022/09/23 03:39:40;;;;;;;1.40;1.00;;;3.90;99.90;;;;;;5012273;28;20033;-73
2022/09/23 03:42:24;;;;;;;0.88;0.88;;;3.80;99.90;;;;;;5026529;28;20201;-73
2022/09/23 03:44:55;;;;;;;0.80;0.80;;;3.80;99.90;;;;;;5012191;28;20188;-73
2022/09/23 03:47:23;;;;;;;1.60;1.23;;;4.00;99.90;;;;;;5012395;28;20030;-73
2022/09/23 03:49:50;;;;;;;2.13;1.38;;;3.90;99.90;;;;;;5012498;28;20065;-73
2022/09/23 03:52:18;;;;;;;1.48;0.70;;;3.80;99.90;;;;;;5012571;28;20109;-73
2022/09/23 03:54:44;;;;;;;1.20;1.08;;;3.80;99.90;;;;;;5012495;28;20064;-74
2022/09/23 03:57:11;;;;;;;1.70;1.17;;;3.80;99.90;;;;;;5011044;28;20030;-74
2022/09/23 03:59:37;;;;;;;0.93;0.82;;;3.60;99.90;;;;;;5012817;28;20014;-74
2022/09/23 04:02:04;;;;;;;0.68;0.68;;;3.80;99.90;;;;;;5027334;28;20133;-73
2022/09/23 04:04:33;;;;;;;1.15;0.98;;;3.60;99.90;;;;;;5012404;28;20030;-74
2022/09/23 04:06:59;;;;;;;1.07;1.07;;;3.60;99.90;;;;;;5011165;28;20516;-74
2022/09/23 04:09:25;;;;;;;1.08;1.05;;;3.80;99.90;;;;;;5012391;28;20655;-73
2022/09/23 04:11:51;;;;;;;1.45;0.90;;;3.60;99.90;;;;;;5011697;28;20088;-73
2022/09/23 04:14:18;;;;;;;0.60;0.60;;;3.70;99.90;;;;;;5011739;28;20058;-73
2022/09/23 04:16:45;;;;;;;1.90;1.00;;;3.80;99.90;;;;;;5011691;28;20022;-73
2022/09/23 04:19:12;;;;;;;3.38;1.52;;;3.80;99.90;;;;;;5012039;28;20109;-73
2022/09/23 04:21:38;;;;;;;1.30;1.20;;;3.70;99.90;;;;;;5012347;28;20207;-75
2022/09/23 04:24:04;;;;;;;1.10;1.10;;;3.70;99.90;;;;;;5010935;28;20397;-74
2022/09/23 04:26:32;;;;;;;1.20;1.20;;;3.80;99.90;;;;;;5012119;28;20026;-73
2022/09/23 04:28:58;;;;;;;1.65;1.30;;;3.90;99.90;;;;;;5009550;28;20025;-73
2022/09/23 04:31:24;;;;;;;1.65;1.40;;;4.00;99.90;;;;;;5009610;28;20181;-73
2022/09/23 04:33:51;;;;;;;1.38;1.10;;;4.00;99.90;;;;;;5011896;28;20218;-73
2022/09/23 04:36:17;;;;;;;0.90;0.90;;;4.00;99.90;;;;;;5015600;28;20028;-73
2022/09/23 04:38:44;;;;;;;1.55;0.95;;;3.90;99.90;;;;;;5014944;28;20022;-73
2022/09/23 04:41:10;;;;;;;0.95;0.95;;;3.90;99.90;;;;;;5013846;28;20042;-73
2022/09/23 04:43:36;;;;;;;1.00;1.00;;;4.10;99.90;;;;;;5030378;28;20080;-73
2022/09/23 04:46:04;;;;;;;1.98;1.17;;;3.90;99.90;;;;;;5014291;28;20022;-73
2022/09/23 04:48:30;;;;;;;2.00;0.70;;;3.80;99.90;;;;;;5015408;28;20525;-73
2022/09/23 04:51:13;;;;;;;1.05;0.98;;;3.90;99.90;;;;;;5013828;28;20124;-73
2022/09/23 04:53:41;;;;;;;1.88;1.60;;;3.70;99.90;;;;;;5015125;28;20153;-73
2022/09/23 04:56:10;;;;;;;1.17;1.08;;;3.60;99.90;;;;;;5014292;28;20144;-73
2022/09/23 04:58:36;;;;;;;1.67;1.52;;;3.80;99.90;;;;;;5014042;28;20100;-73
2022/09/23 05:01:16;;;;;;;2.95;1.77;;;4.10;99.90;;;;;;5014123;28;20394;-73
2022/09/23 05:03:42;;;;;;;0.77;0.77;;;3.60;99.90;;;;;;5013665;28;20025;-73
2022/09/23 05:06:10;;;;;;;0.90;0.90;;;3.70;99.90;;;;;;5013932;28;20042;-73
2022/09/23 05:08:36;;;;;;;1.50;1.08;;;3.60;99.90;;;;;;5012425;28;20026;-74
2022/09/23 05:11:03;;;;;;;1.90;1.20;;;3.60;99.90;;;;;;5014319;28;20026;-73
2022/09/23 05:13:30;;;;;;;1.65;1.20;;;3.60;99.90;;;;;;5012365;28;20030;-75
2022/09/23 05:16:00;;;;;;;3.58;0.80;;;3.60;99.90;;;;;;5013093;28;20057;-75
2022/09/23 05:18:29;;;;;;;0.88;0.88;;;3.60;99.90;;;;;;5024000;28;20037;-76
2022/09/23 05:20:55;;;;;;;1.20;1.10;;;3.70;99.90;;;;;;5024042;28;20033;-76
2022/09/23 05:23:22;;;;;;;0.73;0.73;;;3.70;99.90;;;;;;5020076;28;20026;-76
2022/09/23 05:25:47;;;;;;;0.85;0.80;;;3.70;99.90;;;;;;5027624;28;20018;-76
2022/09/23 05:28:17;;;;;;;0.82;0.80;;;4.00;99.90;;;;;;5011097;28;20021;-76
2022/09/23 05:30:43;;;;;;;2.05;1.38;;;3.80;99.90;;;;;;5009945;28;20487;-76
2022/09/23 05:33:09;;;;;;;1.10;0.77;;;4.00;99.90;;;;;;5025791;28;20465;-76
2022/09/23 05:35:35;;;;;;;1.63;1.52;;;4.00;99.90;;;;;;5011248;28;20018;-76
2022/09/23 05:38:01;;;;;;;1.38;1.25;;;4.10;99.90;;;;;;5019193;28;20270;-76
2022/09/23 05:40:26;;;;;;;0.95;0.80;;;4.10;99.90;;;;;;5016134;28;20309;-76
2022/09/23 05:42:52;;;;;;;2.83;1.85;;;4.20;99.90;;;;;;5009923;28;20045;-76
2022/09/23 05:45:18;;;;;;;1.33;1.23;;;4.30;99.90;;;;;;5010519;28;20045;-77
2022/09/23 05:47:43;;;;;;;1.65;1.35;;;4.40;99.90;;;;;;5012131;28;20200;-76
2022/09/23 05:50:09;;;;;;;1.00;1.00;;;4.50;99.90;;;;;;5013898;28;20029;-76
2022/09/23 05:52:35;;;;;;;2.42;1.83;;;4.50;99.90;;;;;;5012624;28;20485;-76
2022/09/23 05:55:01;;;;;;;1.27;1.08;;;4.70;99.90;;;;;;5012670;28;20029;-76
2022/09/23 05:57:27;;;;;;;1.48;1.45;;;5.00;99.90;;;;;;5013524;28;20050;-76
2022/09/23 05:59:52;;;;;;;1.50;1.25;;;5.10;99.90;;;;;;5005697;28;20057;-78
2022/09/23 06:02:18;;;;;;;1.60;1.35;;;5.10;99.90;;;;;;5011723;28;20044;-77
2022/09/23 06:04:44;;;;;;;1.27;1.20;;;5.00;99.90;;;;;;5012167;28;20401;-78
2022/09/23 06:07:10;;;;;;;1.33;1.08;;;5.10;99.90;;;;;;5011377;28;20490;-79
2022/09/23 06:09:35;;;;;;;1.65;1.55;;;5.20;99.90;;;;;;5011408;28;20116;-80
2022/09/23 06:12:02;;;;;;;2.78;2.33;;;5.30;99.90;;;;;;5009748;28;20037;-78
2022/09/23 06:14:27;;;;;;;1.10;1.10;;;5.40;99.90;;;;;;5010379;28;20443;-78
2022/09/23 06:16:53;;;;;;;2.75;0.98;;;5.50;99.90;;;;;;5025361;28;20115;-78
2022/09/23 06:19:19;;;;;;;1.08;1.02;;;5.70;99.90;;;;;;5005863;28;20023;-78
2022/09/23 06:21:47;;;;;;;1.48;1.23;;;5.80;99.90;;;;;;4990059;28;20061;-78
2022/09/23 06:24:16;;;;;;;1.98;1.77;;;5.90;99.90;;;;;;4989788;28;20034;-77
2022/09/23 06:26:41;;;;;;;1.23;0.95;;;6.00;99.90;;;;;;4989069;28;20248;-79
2022/09/23 06:29:10;;;;;;;1.40;1.23;;;6.10;99.90;;;;;;4991186;28;20026;-79
2022/09/23 06:31:36;;;;;;;2.05;0.93;;;6.10;99.90;;;;;;5009460;28;20613;-78
2022/09/23 06:34:02;;;;;;;2.55;1.13;;;6.20;99.90;;;;;;5010155;28;20109;-78
2022/09/23 06:36:28;;;;;;;1.60;1.50;;;6.30;99.90;;;;;;5010077;28;20104;-78
2022/09/23 06:38:54;;;;;;;3.67;1.20;;;6.40;99.90;;;;;;5024558;28;20394;-78
2022/09/23 06:41:20;;;;;;;0.90;0.90;;;6.50;99.90;;;;;;5007739;28;20117;-76
2022/09/23 06:43:46;;;;;;;3.28;1.15;;;6.60;99.90;;;;;;5006937;28;20538;-77
2022/09/23 06:46:15;;;;;;;1.55;1.17;;;6.70;99.90;;;;;;5009374;28;20030;-78
2022/09/23 06:48:42;;;;;;;1.23;0.93;;;6.80;99.90;;;;;;5009091;28;20054;-78
2022/09/23 06:51:11;;;;;;;1.70;1.17;;;7.00;99.90;;;;;;5008239;28;20052;-78
2022/09/23 06:53:38;;;;;;;1.30;1.20;;;7.10;99.90;;;;;;5008202;28;20041;-78
2022/09/23 06:56:10;;;;;;;1.00;1.00;;;7.20;99.90;;;;;;5019649;28;20375;-78
2022/09/23 06:58:37;;;;;;;2.42;1.40;;;7.40;99.90;;;;;;4988383;28;20033;-77
2022/09/23 07:01:05;;;;;;;1.70;1.60;;;7.60;99.90;;;;;;4990989;28;20436;-78
2022/09/23 07:03:32;;;;;;;1.48;1.25;;;7.70;99.90;;;;;;4991190;28;20022;-78
2022/09/23 07:05:58;;;;;;;2.42;1.48;;;7.80;99.90;;;;;;4990798;28;20093;-77
2022/09/23 07:08:26;;;;;;;1.10;1.08;;;8.00;99.90;;;;;;4989425;28;20026;-77
2022/09/23 07:11:09;;;;;;;1.80;1.70;;;8.10;99.90;;;;;;4990943;28;20026;-78
2022/09/23 07:13:35;;;;;;;2.95;1.50;;;8.40;99.90;;;;;;4990459;28;20030;-78
2022/09/23 07:16:01;;;;;;;4.70;2.38;;;8.60;99.90;;;;;;4990770;28;20058;-77
2022/09/23 07:18:29;;;;;;;2.80;1.92;;;8.80;99.90;;;;;;5004291;28;20092;-78
2022/09/23 07:20:56;;;;;;;2.83;2.60;;;8.90;99.90;;;;;;5009252;28;20025;-78
2022/09/23 07:23:22;;;;;;;2.35;2.15;;;9.10;99.90;;;;;;5010308;28;20565;-82
2022/09/23 07:25:50;;;;;;;2.28;2.08;;;9.30;99.90;;;;;;5014189;28;20033;-79
2022/09/23 07:28:17;;;;;;;3.58;2.70;;;9.50;99.90;;;;;;5010471;28;20029;-79
2022/09/23 07:30:44;;;;;;;3.40;3.10;;;9.50;99.90;;;;;;5008970;28;20014;-78
2022/09/23 07:33:10;;;;;;;5.47;3.08;;;9.60;99.90;;;;;;5007822;28;20034;-79
2022/09/23 07:35:41;;;;;;;5.85;3.00;;;9.80;99.90;;;;;;5009043;28;20099;-78
2022/09/23 07:38:07;;;;;;;5.32;3.00;;;9.90;99.90;;;;;;5008938;28;20513;-79
2022/09/23 07:40:34;;;;;;;6.05;2.65;;;10.00;99.90;;;;;;5009591;28;20030;-79
2022/09/23 07:42:59;;;;;;;2.05;1.65;;;10.10;99.90;;;;;;5010107;28;20022;-78
2022/09/23 07:45:26;;;;;;;1.85;1.75;;;10.20;99.90;;;;;;5009734;28;20033;-79
2022/09/23 07:47:54;;;;;;;2.08;1.40;;;10.30;99.90;;;;;;5009797;28;20045;-78
2022/09/23 07:50:21;;;;;;;1.55;1.50;;;9.50;99.90;;;;;;5010066;28;20088;-77
2022/09/23 07:52:51;;;;;;;1.35;1.25;;;10.40;99.90;;;;;;5009616;28;20033;-79
2022/09/23 07:55:18;;;;;;;4.82;1.25;;;10.50;99.90;;;;;;5009314;28;20018;-78
2022/09/23 07:57:44;;;;;;;1.98;1.30;;;10.60;99.90;;;;;;5008701;28;20394;-79
2022/09/23 08:00:12;;;;;;;1.80;1.58;;;10.70;99.90;;;;;;5008960;28;20029;-78
2022/09/23 08:02:40;;;;;;;1.83;1.73;;;10.80;99.90;;;;;;5009039;28;20044;-79
2022/09/23 08:05:07;;;;;;;1.33;1.23;;;11.00;99.90;;;;;;5008580;28;20065;-79
2022/09/23 08:07:33;;;;;;;3.67;1.98;;;11.10;99.90;;;;;;5008806;28;20482;-80
2022/09/23 08:10:00;;;;;;;1.60;1.50;;;11.20;99.90;;;;;;5011322;28;20026;-79
2022/09/23 08:12:28;;;;;;;1.67;1.35;;;11.30;99.90;;;;;;5010309;28;20129;-79
2022/09/23 08:14:54;;;;;;;1.23;1.20;;;11.40;99.90;;;;;;5010825;28;20020;-79
2022/09/23 08:17:19;;;;;;;2.92;2.08;;;11.50;99.90;;;;;;5012202;28;20022;-79
2022/09/23 08:19:45;;;;;;;2.65;1.67;;;11.70;99.90;;;;;;5012403;28;20033;-79
2022/09/23 08:22:11;;;;;;;2.53;1.55;;;11.80;99.90;;;;;;5025939;28;20674;-80
2022/09/23 08:24:37;;;;;;;2.55;2.15;;;12.00;99.90;;;;;;5009981;28;20022;-79
2022/09/23 08:27:02;;;;;;;1.05;1.05;;;12.20;99.90;;;;;;5010130;28;20033;-79
2022/09/23 08:29:28;;;;;;;1.30;1.25;;;12.30;99.90;;;;;;5024497;28;20124;-79
2022/09/23 08:31:55;;;;;;;1.08;0.80;;;12.40;99.90;;;;;;5012500;28;20088;-78
2022/09/23 08:34:22;;;;;;;1.48;1.38;;;12.50;99.90;;;;;;5012065;28;20022;-79
2022/09/23 08:36:48;;;;;;;0.93;0.93;;;12.70;99.90;;;;;;5025153;28;20029;-78
2022/09/23 08:39:16;;;;;;;1.38;1.27;;;12.90;99.90;;;;;;5009782;28;20037;-80
2022/09/23 08:41:54;;;;;;;3.33;2.08;;;13.00;99.90;;;;;;5009553;28;20049;-79
2022/09/23 08:44:44;;;;;;;2.47;2.00;;;13.30;99.90;;;;;;5009728;28;20084;-81
2022/09/23 08:47:35;;;;;;;2.40;1.55;;;13.60;99.90;;;;;;5011746;28;20026;-80
2022/09/23 08:50:07;;;;;;;1.77;1.65;;;13.70;99.90;;;;;;5011025;28;20046;-79
2022/09/23 08:52:48;;;;;;;3.85;1.63;;;13.80;99.90;;;;;;5009783;28;20052;-79
2022/09/23 08:55:15;;;;;;;1.63;1.33;;;13.80;99.90;;;;;;5009158;28;20109;-80
2022/09/23 08:58:33;;;;;;;1.73;1.23;;;13.70;99.90;;;;;;5009159;28;20101;-80
2022/09/23 09:01:20;;;;;;;1.83;1.53;;;13.70;99.90;;;;;;4985635;28;20044;-79
2022/09/23 09:03:59;;;;;;;1.98;1.60;;;13.80;99.90;;;;;;5010600;28;20061;-79
2022/09/23 09:06:39;;;;;;;3.03;2.03;;;14.10;99.90;;;;;;5009334;28;20032;-81
2022/09/23 09:09:17;;;;;;;2.67;1.30;;;14.20;99.90;;;;;;5009695;28;20054;-78
2022/09/23 09:11:48;;;;;;;2.40;1.63;;;14.30;99.90;;;;;;5033675;28;20025;-82
2022/09/23 09:14:30;;;;;;;2.00;1.10;;;14.30;99.90;;;;;;5015096;28;20030;-79
2022/09/23 09:17:12;;;;;;;2.17;1.23;;;14.50;99.90;;;;;;5013954;28;20026;-79
2022/09/23 09:19:41;;;;;;;1.25;1.17;;;14.60;99.90;;;;;;5009877;28;20307;-81
2022/09/23 09:22:16;;;;;;;1.87;1.27;;;14.60;99.90;;;;;;5008988;28;20048;-79
2022/09/23 09:24:45;;;;;;;2.28;1.48;;;14.60;99.90;;;;;;5010944;28;20100;-79
2022/09/23 09:27:12;;;;;;;1.67;1.58;;;14.60;99.90;;;;;;5011582;28;20251;-79
2022/09/23 09:29:41;;;;;;;1.73;0.95;;;14.80;99.90;;;;;;5013286;28;20498;-80
2022/09/23 09:32:32;;;;;;;1.92;1.23;;;14.80;99.90;;;;;;5013762;28;20049;-80
2022/09/23 09:35:06;;;;;;;1.85;1.52;;;15.00;99.90;;;;;;4982248;28;20042;-80
2022/09/23 09:37:46;;;;;;;1.20;1.00;;;15.10;99.90;;;;;;5009644;28;20025;-82
2022/09/23 09:40:15;;;;;;;0.70;0.70;;;15.10;99.90;;;;;;5009212;28;20030;-79
2022/09/23 09:42:43;;;;;;;1.10;0.70;;;15.10;99.90;;;;;;5008541;28;20029;-79
2022/09/23 09:45:23;;;;;;;1.83;1.70;;;15.10;99.90;;;;;;5010538;28;20037;-80
2022/09/23 09:47:55;;;;;;;4.72;2.25;;;15.60;99.90;;;;;;5016113;28;20022;-80
2022/09/23 09:50:51;;;;;;;1.80;0.95;;;15.10;99.90;;;;;;5010165;28;20443;-80
2022/09/23 09:53:25;;;;;;;0.95;0.95;;;15.10;99.90;;;;;;5008883;28;20029;-80
2022/09/23 09:55:59;;;;;;;0.80;0.80;;;15.40;99.90;;;;;;5008613;28;20018;-79
2022/09/23 09:58:29;;;;;;;1.02;0.98;;;15.30;99.90;;;;;;5007222;28;20038;-77
2022/09/23 10:00:56;;;;;;;2.97;1.48;;;15.30;99.90;;;;;;5008874;28;20036;-78
2022/09/23 10:03:37;;;;;;;1.67;1.27;;;15.40;99.90;;;;;;5013135;28;20034;-78
2022/09/23 10:06:24;;;;;;;2.70;1.00;;;15.30;99.90;;;;;;5011024;28;20060;-79
2022/09/23 10:09:20;;;;;;;2.20;1.27;;;15.40;99.90;;;;;;5007190;28;20029;-79
2022/09/23 10:12:08;;;;;;;1.48;1.20;;;15.50;99.90;;;;;;5006889;28;20117;-78
2022/09/23 10:14:35;;;;;;;0.80;0.80;;;15.50;99.90;;;;;;5008104;28;20116;-78
2022/09/23 10:17:05;;;;;;;2.33;1.30;;;15.60;99.90;;;;;;5009678;28;20467;-78
2022/09/23 10:19:33;;;;;;;2.08;1.42;;;15.70;99.90;;;;;;5010004;28;20525;-77
2022/09/23 10:22:03;;;;;;;2.92;1.35;;;16.00;99.90;;;;;;5007931;28;20697;-78
2022/09/23 10:24:31;;;;;;;1.63;1.52;;;16.10;99.90;;;;;;5008116;28;20246;-78
2022/09/23 10:27:07;;;;;;;1.00;0.93;;;16.20;99.90;;;;;;5007826;28;20040;-79
2022/09/23 10:29:46;;;;;;;1.52;1.15;;;16.30;99.90;;;;;;5008109;28;20029;-79
2022/09/23 10:32:18;;;;;;;2.83;2.13;;;16.40;99.90;;;;;;5009681;28;20050;-78
2022/09/23 10:34:46;;;;;;;1.20;1.05;;;16.50;99.90;;;;;;5007677;28;20120;-79
2022/09/23 10:37:23;;;;;;;0.73;0.73;;;16.60;99.90;;;;;;5005893;28;20072;-77
2022/09/23 10:48:34;;;;;;;1.25;1.00;;;17.30;99.90;;;;;;5012105;28;20548;-78
2022/09/23 10:51:03;;;;;;;1.10;0.90;;;17.50;99.90;;;;;;5011070;28;20501;-78
2022/09/23 10:53:46;;;;;;;2.88;1.30;;;18.00;99.90;;;;;;5007300;28;20017;-79
2022/09/23 10:56:21;;;;;;;0.63;0.63;;;17.80;99.90;;;;;;5006380;28;20030;-79
2022/09/23 10:59:05;;;;;;;1.40;1.27;;;18.00;99.90;;;;;;5006735;28;20029;-79
2022/09/23 11:01:48;;;;;;;0.73;0.73;;;18.10;99.90;;;;;;5009118;28;20025;-79
2022/09/23 11:04:32;;;;;;;2.60;1.42;;;18.30;99.10;;;;;;5008816;28;20022;-78
2022/09/23 11:07:07;;;;;;;0.60;0.60;;;18.40;96.80;;;;;;5008993;28;20033;-78
2022/09/23 11:09:51;;;;;;;0.57;0.57;;;18.50;94.50;;;;;;5007637;28;20030;-78
2022/09/23 11:12:58;;;;;;;0.52;0.52;;;18.40;95.50;;;;;;5007171;28;20120;-79
2022/09/23 11:15:42;;;;;;;0.57;0.57;;;18.60;94.80;;;;;;5007775;28;20048;-79
2022/09/23 11:18:11;;;;;;;0.75;0.70;;;18.70;92.70;;;;;;5007619;28;20029;-80
2022/09/23 11:20:51;;;;;;;1.98;1.02;;;18.90;92.60;;;;;;5007110;28;20018;-79
2022/09/23 11:23:35;;;;;;;0.73;0.70;;;19.20;93.00;;;;;;5006930;28;20115;-79
2022/09/23 11:26:29;;;;;;;0.82;0.82;;;19.20;91.10;;;;;;5005740;28;20030;-80
2022/09/23 11:29:29;;;;;;;0.60;0.60;;;19.40;90.70;;;;;;4990616;28;20034;-80
2022/09/23 11:32:11;;;;;;;0.63;0.63;;;19.60;87.70;;;;;;5007102;28;20648;-80
2022/09/23 11:35:07;;;;;;;0.60;0.60;;;19.80;89.20;;;;;;5007474;28;20033;-79
2022/09/23 11:37:39;;;;;;;0.80;0.80;;;19.90;88.20;;;;;;5006329;28;20018;-80
2022/09/23 11:40:33;;;;;;;0.40;0.40;;;20.10;90.10;;;;;;5006634;28;20121;-81
2022/09/23 11:43:13;;;;;;;0.52;0.43;;;20.20;83.90;;;;;;5006321;28;20036;-80
2022/09/23 11:46:08;;;;;;;0.70;0.70;;;20.10;84.60;;;;;;5010712;28;20425;-81
2022/09/23 11:48:42;;;;;;;7.95;0.70;;;20.30;89.60;;;;;;5012536;28;20026;-81
2022/09/23 11:51:20;;;;;;;0.50;0.40;;;20.50;85.10;;;;;;5011618;28;20053;-80
2022/09/23 11:54:01;;;;;;;1.55;0.80;;;20.40;81.30;;;;;;5010345;28;20093;-80
2022/09/23 11:56:40;;;;;;;0.95;0.82;;;20.60;84.60;;;;;;5010225;28;20115;-80
2022/09/23 11:59:34;;;;;;;0.30;0.30;;;20.90;81.20;;;;;;5009260;28;20549;-80
2022/09/23 12:02:24;;;;;;;0.90;0.70;;;21.30;80.30;;;;;;5012530;28;20486;-80
2022/09/23 12:05:15;;;;;;;0.60;0.60;;;23.10;72.30;;;;;;5012104;28;20387;-80
2022/09/23 12:08:17;;;;;;;1.30;1.20;;;23.10;72.90;;;;;;5010203;28;20026;-80
2022/09/23 12:11:18;;;;;;;1.45;0.70;;;24.50;69.10;;;;;;5009865;28;20481;-81
2022/09/23 12:14:16;;;;;;;1.17;1.08;;;26.00;60.00;;;;;;4988791;28;20034;-80
2022/09/23 12:17:01;;;;;;;0.88;0.60;;;26.00;59.70;;;;;;4988771;28;20225;-80
2022/09/23 12:19:42;;;;;;;0.57;0.52;;;26.60;59.00;;;;;;4991829;28;20029;-81
2022/09/23 12:22:23;;;;;;;0.43;0.43;;;25.90;59.30;;;;;;4989408;28;20116;-80
2022/09/23 12:25:13;;;;;;;2.05;0.75;;;25.80;56.50;;;;;;4988450;28;20050;-80
2022/09/23 12:27:44;;;;;;;0.40;0.40;;;;;;;;;;5005105;28;20271;-80
2022/09/23 12:30:17;;;;;;;1.48;0.90;;;25.80;55.80;;;;;;4990635;28;20018;-81
2022/09/23 12:32:46;;;;;;;4.30;1.45;;;;;;;;;;4992512;28;20044;-80
2022/09/23 12:35:34;;;;;;;0.82;0.77;;;26.10;58.00;;;;;;5006444;28;20093;-81
2022/09/23 12:38:01;;;;;;;0.77;0.52;;;26.50;56.80;;;;;;5004863;28;20030;-80
2022/09/23 12:40:33;;;;;;;1.15;0.65;;;26.10;56.30;;;;;;5004674;28;20030;-79
2022/09/23 12:43:01;;;;;;;0.75;0.60;;;26.00;56.20;;;;;;4989871;28;20041;-80
2022/09/23 12:45:30;;;;;;;0.22;0.22;;;26.00;55.60;;;;;;5005355;28;20022;-80
2022/09/23 12:47:57;;;;;;;1.73;0.50;;;27.00;57.70;;;;;;4991857;28;20113;-80
2022/09/23 12:50:57;;;;;;;0.43;0.43;;;27.60;55.60;;;;;;5006770;28;20288;-80
2022/09/23 12:53:32;;;;;;;0.55;0.55;;;27.60;54.50;;;;;;4989865;28;20018;-80
2022/09/23 12:56:14;;;;;;;0.60;0.60;;;26.30;55.60;;;;;;4987011;28;20034;-79
2022/09/23 12:58:43;;;;;;;0.70;0.60;;;25.80;56.60;;;;;;5004129;28;20140;-79
2022/09/23 13:01:16;;;;;;;;;;;25.50;58.90;;;;;;4991135;28;20032;-79
2022/09/23 13:06:52;;;;;;;0.70;0.50;;;23.90;60.20;;;;;;4990695;28;20503;-78
2022/09/23 13:09:36;;;;;;;1.58;0.68;;;23.80;62.00;;;;;;4989319;28;20061;-79
2022/09/23 13:12:05;;;;;;;8.10;3.83;;;23.70;61.90;;;;;;4997714;28;20579;-79
2022/09/23 13:14:32;;;;;;;1.92;1.10;;;23.20;61.80;;;;;;5009212;28;20033;-79
2022/09/23 13:16:59;;;;;;;1.33;1.23;;;22.90;63.60;;;;;;5010530;28;20030;-79
2022/09/23 13:19:25;;;;;;;0.73;0.68;;;22.90;63.60;;;;;;5010482;28;20022;-79
2022/09/23 13:21:53;;;;;;;0.77;0.70;;;22.80;64.60;;;;;;5008828;28;20049;-79
2022/09/23 13:24:22;;;;;;;0.60;0.55;;;22.90;64.80;;;;;;5007504;28;20052;-80
2022/09/23 13:26:56;;;;;;;0.97;0.60;;;22.60;64.00;;;;;;5007359;28;20129;-79
2022/09/23 13:29:52;;;;;;;0.75;0.60;;;22.80;65.70;;;;;;5008668;28;20030;-79
2022/09/23 13:32:21;;;;;;;0.93;0.93;;;23.30;64.30;;;;;;5010636;28;20522;-78
2022/09/23 13:35:25;;;;;;;0.88;0.80;;;23.50;63.40;;;;;;5010673;28;20236;-79
2022/09/23 13:37:51;;;;;;;1.50;0.80;;;23.30;63.70;;;;;;4994524;28;20038;-79